Araruna, Brazil
Current Conditions -  °F | °C
As of 2:00 PM on Saturday 25 Oct 2014 (Local Time) from SBMG Reporting Station
Broken Clouds Broken Clouds  
Wind Chill: 77°   Ceiling: 10000
Heat Index: 79°   Visibility: 6mi
Dew Point: 64°   Wind: 12mph
Humidity: 65%   Direction: 20°NNE
Pressure: 29.97"   Gusts: NA
Location:  23.93°S, 52.5°W
Report Text: SBMG 251600Z 02010KT 9999 SCT017 BKN100 25/18 Q1015
Loading
Personal Weather Stations






























Interactive Weather Map
Tropical Storm Tracking
New forecast layout! Learn more

10-Day Weather Forecast

Advertisements
Track Severe Weather on mobile